Time;durP1;ratioP1;P1;durP2;ratioP2;P2;SDS_P1;SDS_P2;PMS_P1;PMS_P2;Temp;Humidity;BMP_temperature;BMP_pressure;BME280_temperature;BME280_humidity;BME280_pressure;Samples;Min_cycle;Max_cycle;Signal;HPM_P1;HPM_P2
2022/09/26 00:01:21;;;;;;;27.98;12.93;;;;;;;;;;5037526;28;20033;-71
2022/09/26 00:03:51;;;;;;;19.77;12.55;;;;;;;;;;5051369;28;20128;-71
2022/09/26 00:06:20;;;;;;;22.25;12.98;;;;;;;;;;5052673;28;20048;-71
2022/09/26 00:08:48;;;;;;;20.85;11.25;;;;;;;;;;5052470;28;20037;-71
2022/09/26 00:11:20;;;;;;;16.60;10.05;;;;;;;;;;5051224;28;20055;-71
2022/09/26 00:13:50;;;;;;;20.10;10.25;;;;;;;;;;5052393;28;20049;-71
2022/09/26 00:16:18;;;;;;;19.50;8.98;;;;;;;;;;5051377;28;20043;-71
2022/09/26 00:18:49;;;;;;;18.15;8.52;;;;;;;;;;5052434;28;20542;-71
2022/09/26 00:21:17;;;;;;;15.65;7.97;;;;;;;;;;5052310;28;20041;-71
2022/09/26 00:23:44;;;;;;;15.55;7.95;;;;;;;;;;5051049;28;20036;-71
2022/09/26 00:26:13;;;;;;;14.65;7.70;;;;;;;;;;5052442;28;20049;-71
2022/09/26 00:28:41;;;;;;;17.25;8.13;;;;;;;;;;5052151;28;20038;-71
2022/09/26 00:31:13;;;;;;;17.73;7.65;;;;;;;;;;5051062;28;20091;-71
2022/09/26 00:33:41;;;;;;;16.27;7.45;;;;;;;;;;5050774;28;20498;-71
2022/09/26 00:36:09;;;;;;;15.00;7.35;;;;;;;;;;5050760;28;20102;-71
2022/09/26 00:38:37;;;;;;;13.80;7.18;;;;;;;;;;5050978;28;20051;-71
2022/09/26 00:41:05;;;;;;;13.88;6.72;;;;;;;;;;5051040;28;20037;-71
2022/09/26 00:43:34;;;;;;;11.95;7.05;;;;;;;;;;5051081;28;20041;-71
2022/09/26 00:46:10;;;;;;;15.68;7.82;;;;;;;;;;5052138;28;20128;-71
2022/09/26 00:48:39;;;;;;;16.52;8.90;;;;;;;;;;5050861;28;20045;-71
2022/09/26 00:51:07;;;;;;;12.52;8.43;;;;;;;;;;5050965;28;20064;-71
2022/09/26 00:53:38;;;;;;;15.75;8.85;;;;;;;;;;5053983;28;20071;-71
2022/09/26 00:56:08;;;;;;;13.30;8.07;;;;;;;;;;5056049;28;20370;-71
2022/09/26 00:58:40;;;;;;;17.25;8.95;;;;;;;;;;5055934;28;20052;-71
2022/09/26 01:01:08;;;;;;;14.55;8.90;;;;;;;;;;5054656;28;20064;-71
2022/09/26 01:03:37;;;;;;;17.00;10.48;;;;;;;;;;5054603;28;20127;-71
2022/09/26 01:06:05;;;;;;;18.60;12.48;;;;;;;;;;5054537;28;20059;-71
2022/09/26 01:08:36;;;;;;;35.58;19.00;;;;;;;;;;5055812;28;20037;-71
2022/09/26 01:11:03;;;;;;;18.27;11.05;;;;;;;;;;5055679;28;20053;-71
2022/09/26 01:13:35;;;;;;;22.05;13.57;;;;;;;;;;5054381;28;20037;-71
2022/09/26 01:16:03;;;;;;;21.05;11.13;;;;;;;;;;5054252;28;20049;-70
2022/09/26 01:18:31;;;;;;;20.80;10.85;;;;;;;;;;5055477;28;20436;-71
2022/09/26 01:21:17;;;;;;;21.40;13.07;;;;;;;;;;5054311;28;20052;-71
2022/09/26 01:24:12;;;;;;;31.35;16.30;;;;;;;;;;5055450;28;20084;-71
2022/09/26 01:26:39;;;;;;;29.90;15.82;;;;;;;;;;5054200;28;20048;-71
2022/09/26 01:29:13;;;;;;;28.17;16.33;;;;;;;;;;5055322;28;20041;-71
2022/09/26 01:34:55;;;;;;;26.60;17.42;;;;;;;;;;5053969;28;20516;-71
2022/09/26 01:37:41;;;;;;;34.17;17.13;;;;;;;;;;5053906;28;20067;-71
2022/09/26 01:40:14;;;;;;;31.38;18.15;;;;;;;;;;5054064;28;20444;-71
2022/09/26 01:42:49;;;;;;;31.90;17.67;;;;;;;;;;5053955;28;20124;-71
2022/09/26 01:45:19;;;;;;;32.28;15.73;;;;;;;;;;5053882;28;20068;-71
2022/09/26 01:47:54;;;;;;;36.05;16.67;;;;;;;;;;5053880;28;20071;-71
2022/09/26 01:50:22;;;;;;;28.98;17.95;;;;;;;;;;5053827;28;20055;-71
2022/09/26 01:52:53;;;;;;;29.23;17.52;;;;;;;;;;5053725;28;20069;-71
2022/09/26 01:55:35;;;;;;;32.72;18.40;;;;;;;;;;5053348;28;20102;-71
2022/09/26 01:58:04;;;;;;;31.63;17.58;;;;;;;;;;5053494;28;20045;-71
2022/09/26 02:00:34;;;;;;;33.35;16.25;;;;;;;;;;5053571;28;20045;-71
2022/09/26 02:03:02;;;;;;;27.05;16.08;;;;;;;;;;5053122;28;20049;-70
2022/09/26 02:05:37;;;;;;;34.75;17.50;;;;;;;;;;5053485;28;20059;-70
2022/09/26 02:08:04;;;;;;;28.43;16.93;;;;;;;;;;5053417;28;20053;-70
2022/09/26 02:10:37;;;;;;;30.35;17.40;;;;;;;;;;5053336;28;20286;-70
2022/09/26 02:13:08;;;;;;;28.38;15.48;;;;;;;;;;5053296;28;20048;-70
2022/09/26 02:15:37;;;;;;;31.10;16.90;;;;;;;;;;5053149;28;20044;-71
2022/09/26 02:18:13;;;;;;;28.10;17.83;;;;;;;;;;5053235;28;20254;-70
2022/09/26 02:20:45;;;;;;;30.58;16.95;;;;;;;;;;5053050;28;20045;-70
2022/09/26 02:23:13;;;;;;;36.60;17.73;;;;;;;;;;5053075;28;20048;-70
2022/09/26 02:25:40;;;;;;;33.78;19.00;;;;;;;;;;5053084;28;20045;-70
2022/09/26 02:28:08;;;;;;;32.92;18.17;;;;;;;;;;5052908;28;20694;-70
2022/09/26 02:30:36;;;;;;;36.83;21.00;;;;;;;;;;5052896;28;20131;-70
2022/09/26 02:33:04;;;;;;;43.15;22.42;;;;;;;;;;5052539;28;20423;-71
2022/09/26 02:38:22;;;;;;;39.63;22.02;;;;;;;;;;5052880;28;20502;-71
2022/09/26 02:41:00;;;;;;;42.20;22.77;;;;;;;;;;5052700;28;20444;-70
2022/09/26 02:43:28;;;;;;;42.63;22.58;;;;;;;;;;5052740;28;20459;-71
2022/09/26 02:46:08;;;;;;;41.97;22.67;;;;;;;;;;5052622;28;20065;-70
2022/09/26 02:48:38;;;;;;;41.38;21.80;;;;;;;;;;5052489;28;20069;-70
2022/09/26 02:51:14;;;;;;;45.15;22.58;;;;;;;;;;5052585;28;20076;-70
2022/09/26 02:54:00;;;;;;;39.80;21.65;;;;;;;;;;5052510;28;20045;-70
2022/09/26 02:57:00;;;;;;;41.63;21.98;;;;;;;;;;5052080;28;20045;-70
2022/09/26 02:59:32;;;;;;;40.28;22.90;;;;;;;;;;5047235;28;20073;-71
2022/09/26 03:02:05;;;;;;;51.08;25.45;;;;;;;;;;5052256;28;20049;-71
2022/09/26 03:04:53;;;;;;;45.17;23.17;;;;;;;;;;5052333;28;20049;-70
2022/09/26 03:07:25;;;;;;;43.92;23.73;;;;;;;;;;5052272;28;20481;-70
2022/09/26 03:09:55;;;;;;;44.13;23.65;;;;;;;;;;5052037;28;20048;-71
2022/09/26 03:12:25;;;;;;;47.40;23.48;;;;;;;;;;5051892;28;20045;-70
2022/09/26 03:14:53;;;;;;;43.08;24.45;;;;;;;;;;5051275;28;20075;-70
2022/09/26 03:17:25;;;;;;;39.08;22.52;;;;;;;;;;5051911;28;20071;-70
2022/09/26 03:19:56;;;;;;;41.17;23.17;;;;;;;;;;5051922;28;20383;-70
2022/09/26 03:22:24;;;;;;;41.63;23.90;;;;;;;;;;5052026;28;20056;-70
2022/09/26 03:24:52;;;;;;;53.33;24.98;;;;;;;;;;5051897;28;20497;-70
2022/09/26 03:27:20;;;;;;;54.42;28.13;;;;;;;;;;5051819;28;20049;-70
2022/09/26 03:29:48;;;;;;;59.80;29.88;;;;;;;;;;5051796;28;20040;-70
2022/09/26 03:32:20;;;;;;;68.65;32.63;;;;;;;;;;5051542;28;20045;-70
2022/09/26 03:34:49;;;;;;;60.50;31.67;;;;;;;;;;5051500;28;20041;-70
2022/09/26 03:37:18;;;;;;;58.75;30.85;;;;;;;;;;5051778;28;20045;-70
2022/09/26 03:39:46;;;;;;;53.33;28.75;;;;;;;;;;5051588;28;20045;-70
2022/09/26 03:42:23;;;;;;;55.95;28.92;;;;;;;;;;5051562;28;20044;-70
2022/09/26 03:44:53;;;;;;;53.58;26.52;;;;;;;;;;5051023;28;20140;-70
2022/09/26 03:47:29;;;;;;;49.05;25.35;;;;;;;;;;5052853;28;20045;-70
2022/09/26 03:49:59;;;;;;;46.45;23.77;;;;;;;;;;5052810;28;20053;-70
2022/09/26 03:52:26;;;;;;;43.83;23.65;;;;;;;;;;5051317;28;20477;-70
2022/09/26 03:54:54;;;;;;;42.05;23.58;;;;;;;;;;5051317;28;20137;-69
2022/09/26 03:57:21;;;;;;;41.60;23.30;;;;;;;;;;5051407;28;20040;-69
2022/09/26 03:59:55;;;;;;;46.67;26.67;;;;;;;;;;5051460;28;20135;-69
2022/09/26 04:02:26;;;;;;;44.33;22.77;;;;;;;;;;5051282;28;20056;-70
2022/09/26 04:05:09;;;;;;;43.92;23.60;;;;;;;;;;5051507;28;20471;-70
2022/09/26 04:07:37;;;;;;;47.65;25.48;;;;;;;;;;5051237;28;20041;-70
2022/09/26 04:10:04;;;;;;;41.63;23.00;;;;;;;;;;5051417;28;20107;-70
2022/09/26 04:12:33;;;;;;;79.32;45.30;;;;;;;;;;5051288;28;20503;-70
2022/09/26 04:15:01;;;;;;;43.97;22.30;;;;;;;;;;5051125;28;20044;-69
2022/09/26 04:17:31;;;;;;;70.80;39.03;;;;;;;;;;5051240;28;20076;-69
2022/09/26 04:20:00;;;;;;;43.10;22.02;;;;;;;;;;5051291;28;20071;-69
2022/09/26 04:22:28;;;;;;;48.30;23.05;;;;;;;;;;5051102;28;20038;-69
2022/09/26 04:24:56;;;;;;;45.90;23.10;;;;;;;;;;5051010;28;20077;-69
2022/09/26 04:27:27;;;;;;;48.90;22.13;;;;;;;;;;5054079;28;20040;-69
2022/09/26 04:29:56;;;;;;;49.58;26.65;;;;;;;;;;5055909;28;20537;-69
2022/09/26 04:32:43;;;;;;;44.28;22.13;;;;;;;;;;5055815;28;20049;-69
2022/09/26 04:35:29;;;;;;;31.88;17.08;;;;;;;;;;5056348;28;20096;-69
2022/09/26 04:37:57;;;;;;;43.88;20.45;;;;;;;;;;5054748;28;20073;-69
2022/09/26 04:40:24;;;;;;;46.38;27.10;;;;;;;;;;5038664;28;20131;-69
2022/09/26 04:43:05;;;;;;;53.35;18.75;;;;;;;;;;5055031;28;20065;-70
2022/09/26 04:45:33;;;;;;;46.72;22.08;;;;;;;;;;5054982;28;20052;-69
2022/09/26 04:48:01;;;;;;;37.55;19.20;;;;;;;;;;5054914;28;20087;-69
2022/09/26 04:50:58;;;;;;;36.78;20.08;;;;;;;;;;5047052;28;20152;-69
2022/09/26 04:53:26;;;;;;;40.38;20.23;;;;;;;;;;5054939;28;20135;-69
2022/09/26 04:56:18;;;;;;;38.75;18.92;;;;;;;;;;5054590;28;20049;-69
2022/09/26 04:58:45;;;;;;;34.50;18.33;;;;;;;;;;5054692;28;20049;-69
2022/09/26 05:01:15;;;;;;;35.45;19.33;;;;;;;;;;5054775;28;20063;-69
2022/09/26 05:04:02;;;;;;;36.55;17.60;;;;;;;;;;5056222;28;20056;-69
2022/09/26 05:06:32;;;;;;;39.78;18.48;;;;;;;;;;5054656;28;20040;-69
2022/09/26 05:09:03;;;;;;;23.83;13.50;;;;;;;;;;5054447;28;20143;-69
2022/09/26 05:12:06;;;;;;;24.40;12.15;;;;;;;;;;5048216;28;20098;-66
2022/09/26 05:14:35;;;;;;;22.98;11.55;;;;;;;;;;5054334;28;20045;-66
2022/09/26 05:17:04;;;;;;;25.08;13.48;;;;;;;;;;5054333;28;20563;-66
2022/09/26 05:19:32;;;;;;;23.98;11.98;;;;;;;;;;5037905;28;20106;-66
2022/09/26 05:22:20;;;;;;;57.63;35.60;;;;;;;;;;5040487;28;20045;-70
2022/09/26 05:27:35;;;;;;;26.80;13.75;;;;;;;;;;5054171;28;20063;-69
2022/09/26 05:30:03;;;;;;;25.67;12.13;;;;;;;;;;5054137;28;20041;-69
2022/09/26 05:32:31;;;;;;;28.38;14.15;;;;;;;;;;5054080;28;20045;-70
2022/09/26 05:34:59;;;;;;;25.38;16.10;;;;;;;;;;5053831;28;20129;-69
2022/09/26 05:37:29;;;;;;;31.13;16.25;;;;;;;;;;5053263;28;20095;-69
2022/09/26 05:42:49;;;;;;;31.83;17.02;;;;;;;;;;5053792;28;20049;-70
2022/09/26 05:45:16;;;;;;;29.52;15.30;;;;;;;;;;5037386;28;20080;-70
2022/09/26 05:47:47;;;;;;;28.58;14.60;;;;;;;;;;5054022;28;20044;-70
2022/09/26 05:50:15;;;;;;;29.08;14.43;;;;;;;;;;5053901;28;20060;-70
2022/09/26 05:52:44;;;;;;;29.58;15.52;;;;;;;;;;5056146;28;20048;-70
2022/09/26 05:55:19;;;;;;;29.38;13.93;;;;;;;;;;5061107;28;20102;-70
2022/09/26 05:58:09;;;;;;;32.17;13.13;;;;;;;;;;5039643;28;20067;-70
2022/09/26 06:00:59;;;;;;;28.73;12.48;;;;;;;;;;5061915;28;20052;-70
2022/09/26 06:03:27;;;;;;;24.20;12.15;;;;;;;;;;5053685;28;20053;-70
2022/09/26 06:06:10;;;;;;;27.92;13.10;;;;;;;;;;5055952;28;20036;-70
2022/09/26 06:08:38;;;;;;;22.15;12.82;;;;;;;;;;5056037;28;20088;-71
2022/09/26 06:11:37;;;;;;;23.80;13.75;;;;;;;;;;5031679;28;20060;-70
2022/09/26 06:14:05;;;;;;;33.85;16.00;;;;;;;;;;5053447;28;20076;-70
2022/09/26 06:16:33;;;;;;;37.92;15.57;;;;;;;;;;5053090;28;20041;-70
2022/09/26 06:19:01;;;;;;;25.75;13.25;;;;;;;;;;5052764;28;20135;-70
2022/09/26 06:21:29;;;;;;;26.92;13.00;;;;;;;;;;5053210;28;20483;-70
2022/09/26 06:24:03;;;;;;;25.83;13.67;;;;;;;;;;5053069;28;20414;-71
2022/09/26 06:26:31;;;;;;;28.13;12.43;;;;;;;;;;5053362;28;20041;-70
2022/09/26 06:28:59;;;;;;;34.65;13.50;;;;;;;;;;5036691;28;20068;-70
2022/09/26 06:31:32;;;;;;;26.42;12.77;;;;;;;;;;5037414;28;20506;-71
2022/09/26 06:34:11;;;;;;;23.88;11.93;;;;;;;;;;5054286;28;20048;-70
2022/09/26 06:37:14;;;;;;;28.85;15.25;;;;;;;;;;5032254;28;20058;-70
2022/09/26 06:39:42;;;;;;;33.55;16.77;;;;;;;;;;5048722;28;20041;-70
2022/09/26 06:42:11;;;;;;;32.28;18.38;;;;;;;;;;5052985;28;20037;-70
2022/09/26 06:45:01;;;;;;;31.75;16.92;;;;;;;;;;5053769;28;20122;-70
2022/09/26 06:47:46;;;;;;;;;;;;;;;;;;5053185;28;20080;-71
2022/09/26 06:50:33;;;;;;;25.30;11.73;;;;;;;;;;5051616;28;20476;-71
2022/09/26 06:53:03;;;;;;;36.45;16.48;;;;;;;;;;5052301;28;20048;-71
2022/09/26 06:55:36;;;;;;;27.73;14.13;;;;;;;;;;5036720;28;20136;-71
2022/09/26 06:58:04;;;;;;;35.08;14.07;;;;;;;;;;5052312;28;20391;-71
2022/09/26 07:00:46;;;;;;;26.58;13.57;;;;;;;;;;5052423;28;20037;-71
2022/09/26 07:03:32;;;;;;;20.02;11.77;;;;;;;;;;5053784;28;20056;-71
2022/09/26 07:06:21;;;;;;;25.30;11.63;;;;;;;;;;5046013;28;20052;-71
2022/09/26 07:08:51;;;;;;;22.40;10.45;;;;;;;;;;5052243;28;20095;-71
2022/09/26 07:11:49;;;;;;;18.13;9.95;;;;;;;;;;5052178;28;20037;-71
2022/09/26 07:14:37;;;;;;;9.48;7.03;;;;;;;;;;5052050;28;20041;-71
2022/09/26 07:17:18;;;;;;;10.80;6.10;;;;;;;;;;5051954;28;20559;-71
2022/09/26 07:20:09;;;;;;;11.20;5.40;;;;;;;;;;5052736;28;20124;-71
2022/09/26 07:22:56;;;;;;;9.68;6.13;;;;;;;;;;5052047;28;20052;-72
2022/09/26 07:25:25;;;;;;;10.85;6.60;;;;;;;;;;5085532;28;20045;-72
2022/09/26 07:27:52;;;;;;;8.82;5.43;;;;;;;;;;5052216;28;20040;-72
2022/09/26 07:30:27;;;;;;;9.20;5.95;;;;;;;;;;5051895;28;20084;-72
2022/09/26 07:33:11;;;;;;;6.70;4.20;;;;;;;;;;5051917;28;20049;-73
2022/09/26 07:35:47;;;;;;;7.55;4.50;;;;;;;;;;5051445;28;20494;-72
2022/09/26 07:38:14;;;;;;;8.52;4.53;;;;;;;;;;5051688;28;20040;-72
2022/09/26 07:40:43;;;;;;;7.35;5.20;;;;;;;;;;5051668;28;20036;-72
2022/09/26 07:43:10;;;;;;;8.75;5.65;;;;;;;;;;5052015;28;20075;-72
2022/09/26 07:51:47;;;;;;;17.10;10.10;;;;;;;;;;5052798;28;20130;-70
2022/09/26 07:54:19;;;;;;;25.67;16.38;;;;;;;;;;5051569;28;20049;-70
2022/09/26 07:57:07;;;;;;;17.30;11.00;;;;;;;;;;5031286;28;20049;-72
2022/09/26 07:59:53;;;;;;;16.43;9.73;;;;;;;;;;5051379;28;20387;-71
2022/09/26 08:02:45;;;;;;;20.33;11.68;;;;;;;;;;5053243;28;20821;-71
2022/09/26 08:05:18;;;;;;;20.73;9.88;;;;;;;;;;5052075;28;20052;-71
2022/09/26 08:07:48;;;;;;;14.85;9.10;;;;;;;;;;5051934;28;20430;-70
2022/09/26 08:10:38;;;;;;;17.45;9.68;;;;;;;;;;5051737;28;20060;-70
2022/09/26 08:13:26;;;;;;;15.95;8.85;;;;;;;;;;5053509;28;20042;-73
2022/09/26 08:16:29;;;;;;;17.70;8.40;;;;;;;;;;5051083;28;20052;-72
2022/09/26 08:19:01;;;;;;;15.43;8.43;;;;;;;;;;5048503;28;20490;-71
2022/09/26 08:21:28;;;;;;;16.38;8.50;;;;;;;;;;5051772;28;20076;-72
2022/09/26 08:23:58;;;;;;;12.18;7.03;;;;;;;;;;5051827;28;20044;-71
2022/09/26 08:26:31;;;;;;;12.45;7.13;;;;;;;;;;5053465;28;20048;-72
2022/09/26 08:29:10;;;;;;;12.73;6.68;;;;;;;;;;5085098;28;20091;-72
2022/09/26 08:31:38;;;;;;;14.00;7.32;;;;;;;;;;5051671;28;20076;-72
2022/09/26 08:34:06;;;;;;;16.05;7.50;;;;;;;;;;5051773;28;20124;-71
2022/09/26 08:36:35;;;;;;;14.25;7.88;;;;;;;;;;5051747;28;20131;-71
2022/09/26 08:39:14;;;;;;;18.05;7.38;;;;;;;;;;5051988;28;20045;-71
2022/09/26 08:42:00;;;;;;;17.05;8.60;;;;;;;;;;5052078;28;20056;-71
2022/09/26 08:44:51;;;;;;;14.15;7.63;;;;;;;;;;5051899;28;20096;-71
2022/09/26 08:47:49;;;;;;;13.60;7.57;;;;;;;;;;5052630;28;20138;-71
2022/09/26 08:50:32;;;;;;;15.05;6.82;;;;;;;;;;5037285;28;20041;-71
2022/09/26 08:53:04;;;;;;;16.00;7.60;;;;;;;;;;5051601;28;20049;-71
2022/09/26 08:55:40;;;;;;;16.13;7.57;;;;;;;;;;5051728;28;20061;-71
2022/09/26 08:58:16;;;;;;;18.50;7.60;;;;;;;;;;5051629;28;20079;-71
2022/09/26 09:00:45;;;;;;;13.73;6.53;;;;;;;;;;5051371;28;20052;-71
2022/09/26 09:03:29;;;;;;;13.98;6.35;;;;;;;;;;5050803;28;20063;-71
2022/09/26 09:06:16;;;;;;;15.60;7.50;;;;;;;;;;5050791;28;20049;-72
2022/09/26 09:08:49;;;;;;;12.52;6.72;;;;;;;;;;5084348;28;20565;-72
2022/09/26 09:11:41;;;;;;;10.10;5.72;;;;;;;;;;5052058;28;20187;-72
2022/09/26 09:14:28;;;;;;;12.40;6.15;;;;;;;;;;5086716;28;20048;-72
2022/09/26 09:16:58;;;;;;;24.98;6.97;;;;;;;;;;5055860;28;20494;-72
2022/09/26 09:20:12;;;;;;;15.90;6.78;;;;;;;;;;5054382;28;20049;-72
2022/09/26 09:23:08;;;;;;;15.93;6.47;;;;;;;;;;5055054;28;20140;-72
2022/09/26 09:25:40;;;;;;;10.48;7.00;;;;;;;;;;5087755;28;20131;-72
2022/09/26 09:28:14;;;;;;;13.50;7.28;;;;;;;;;;5055802;28;20521;-72
2022/09/26 09:30:42;;;;;;;15.07;7.45;;;;;;;;;;5087747;28;20448;-72
2022/09/26 09:33:42;;;;;;;12.00;6.75;;;;;;;;;;5050110;28;20478;-72
2022/09/26 09:36:20;;;;;;;15.48;7.80;;;;;;;;;;5053988;28;20502;-72
2022/09/26 09:39:07;;;;;;;17.05;8.65;;;;;;;;;;5054051;28;20044;-72
2022/09/26 09:42:12;;;;;;;12.90;8.27;;;;;;;;;;5046519;28;20409;-72
2022/09/26 09:44:43;;;;;;;10.68;6.70;;;;;;;;;;5054016;28;20049;-71
2022/09/26 09:47:14;;;;;;;11.15;7.32;;;;;;;;;;5055103;28;20087;-71
2022/09/26 09:49:46;;;;;;;10.50;5.78;;;;;;;;;;5053773;28;20044;-72
2022/09/26 09:52:26;;;;;;;10.55;6.75;;;;;;;;;;5053658;28;20099;-72
2022/09/26 09:54:58;;;;;;;12.98;6.35;;;;;;;;;;5053566;28;20124;-71
2022/09/26 09:57:43;;;;;;;13.68;6.30;;;;;;;;;;5053648;28;20140;-72
2022/09/26 10:00:11;;;;;;;13.68;6.05;;;;;;;;;;5053650;28;20128;-72
2022/09/26 10:03:19;;;;;;;14.25;5.90;;;;;;;;;;5054044;28;20118;-71
2022/09/26 10:05:50;;;;;;;11.82;6.45;;;;;;;;;;5053452;28;20482;-72
2022/09/26 10:08:40;;;;;;;12.32;6.25;;;;;;;;;;5087079;28;20051;-72
2022/09/26 10:11:25;;;;;;;12.70;6.60;;;;;;;;;;5054619;28;20041;-71
2022/09/26 10:14:00;;;;;;;14.50;6.78;;;;;;;;;;5054686;28;20045;-71
2022/09/26 10:17:07;;;;;;;12.20;7.03;;;;;;;;;;5054365;28;20052;-71
2022/09/26 10:19:42;;;;;;;11.60;6.75;;;;;;;;;;5087062;28;20178;-71
2022/09/26 10:22:16;;;;;;;12.40;6.22;;;;;;;;;;5053227;28;20049;-71
2022/09/26 10:24:45;;;;;;;13.77;6.18;;;;;;;;;;5053032;28;20106;-71
2022/09/26 10:27:34;;;;;;;9.18;5.20;;;;;;;;;;5053024;28;20458;-71
2022/09/26 10:30:05;;;;;;;24.40;16.58;;;;;;;;;;5086709;28;20041;-71
2022/09/26 10:32:44;;;;;;;11.60;6.97;;;;;;;;;;5053101;28;20166;-71
2022/09/26 10:35:42;;;;;;;9.75;5.80;;;;;;;;;;5053943;28;20056;-71
2022/09/26 10:38:18;;;;;;;11.98;5.72;;;;;;;;;;5053086;28;20055;-71
2022/09/26 10:40:52;;;;;;;10.95;5.60;;;;;;;;;;5053139;28;20049;-71
2022/09/26 10:43:20;;;;;;;9.52;5.75;;;;;;;;;;5052905;28;20098;-71
2022/09/26 10:45:53;;;;;;;9.35;4.78;;;;;;;;;;5053311;28;20055;-71
2022/09/26 10:48:50;;;;;;;12.82;6.22;;;;;;;;;;5054043;28;20048;-71
2022/09/26 10:51:43;;;;;;;10.43;5.38;;;;;;;;;;5053763;28;20102;-71
2022/09/26 10:54:17;;;;;;;12.18;5.13;;;;;;;;;;5052655;28;20099;-71
2022/09/26 10:56:49;;;;;;;11.65;4.97;;;;;;;;;;5052560;28;20037;-71
2022/09/26 10:59:18;;;;;;;7.85;4.78;;;;;;;;;;5052480;28;20053;-71
2022/09/26 11:01:50;;;;;;;9.05;5.05;;;;;;;;;;5052423;28;20099;-71
2022/09/26 11:07:47;;;;;;;32.78;22.00;;;;;;;;;;5051271;28;20501;-71
2022/09/26 11:10:35;;;;;;;11.05;5.55;;;;;;;;;;5053018;28;20078;-71
2022/09/26 11:13:16;;;;;;;5.60;4.22;;;;;;;;;;5085833;28;20056;-70
2022/09/26 11:16:07;;;;;;;9.80;4.50;;;;;;;;;;5052214;28;20140;-71
2022/09/26 11:18:36;;;;;;;7.53;4.40;;;;;;;;;;5048955;28;20045;-71
2022/09/26 11:21:14;;;;;;;7.82;4.53;;;;;;;;;;5052145;28;20075;-71
2022/09/26 11:24:02;;;;;;;8.65;4.47;;;;;;;;;;5052206;28;20071;-71
2022/09/26 11:26:36;;;;;;;10.48;4.53;;;;;;;;;;5051999;28;20140;-71
2022/09/26 11:29:04;;;;;;;;;;;;;;;;;;5085879;28;20037;-71
2022/09/26 11:31:42;;;;;;;8.40;4.20;;;;;;;;;;5051880;28;20585;-71
2022/09/26 11:34:27;;;;;;;8.25;4.32;;;;;;;;;;5052072;28;20047;-71
2022/09/26 11:37:32;;;;;;;7.45;4.53;;;;;;;;;;5051198;28;20048;-71
2022/09/26 11:39:59;;;;;;;9.45;4.88;;;;;;;;;;5040604;28;20037;-72
2022/09/26 11:42:45;;;;;;;8.65;4.13;;;;;;;;;;5051740;28;20075;-71
2022/09/26 11:45:23;;;;;;;7.68;4.20;;;;;;;;;;5085410;28;20047;-72
2022/09/26 11:48:09;;;;;;;9.52;5.13;;;;;;;;;;5052985;28;20060;-71
2022/09/26 11:51:08;;;;;;;8.65;4.35;;;;;;;;;;5052780;28;20052;-71
2022/09/26 11:54:05;;;;;;;8.68;4.40;;;;;;;;;;5051557;28;20144;-71
2022/09/26 11:56:48;;;;;;;6.55;3.30;;;;;;;;;;5052685;28;20038;-72
2022/09/26 11:59:22;;;;;;;6.82;3.90;;;;;;;;;;5052561;28;20400;-71
2022/09/26 12:02:19;;;;;;;6.95;3.20;;;;;;;;;;5052688;28;20439;-72
2022/09/26 12:04:49;;;;;;;10.00;6.13;;;;;;;;;;5052644;28;20047;-72
2022/09/26 12:07:22;;;;;;;5.93;4.18;;;;;;;;;;5052797;28;20036;-72
2022/09/26 12:09:58;;;;;;;5.07;3.85;;;;;;;;;;5052376;28;20053;-72
2022/09/26 12:12:40;;;;;;;7.35;3.60;;;;;;;;;;5052318;28;20112;-71
2022/09/26 12:15:19;;;;;;;7.85;6.00;;;;;;;;;;5052527;28;20049;-71
2022/09/26 12:17:46;;;;;;;8.55;5.72;;;;;;;;;;5052470;28;20041;-72
2022/09/26 12:20:14;;;;;;;10.20;6.65;;;;;;;;;;5051235;28;20513;-72
2022/09/26 12:22:56;;;;;;;5.85;3.83;;;;;;;;;;5052609;28;20393;-73
2022/09/26 12:25:29;;;;;;;5.80;3.35;;;;;;;;;;5052295;28;20033;-71
2022/09/26 12:28:15;;;;;;;6.07;4.00;;;;;;;;;;5052366;28;20486;-71
2022/09/26 12:31:09;;;;;;;10.18;3.45;;;;;;;;;;5052947;28;20434;-71
2022/09/26 12:33:49;;;;;;;5.63;3.88;;;;;;;;;;5052072;28;20087;-71
2022/09/26 12:36:30;;;;;;;5.63;3.83;;;;;;;;;;5052286;28;20446;-71
2022/09/26 12:39:16;;;;;;;7.03;4.63;;;;;;;;;;5052435;28;20056;-72
2022/09/26 12:41:46;;;;;;;8.68;4.35;;;;;;;;;;5052358;28;20040;-71
2022/09/26 12:44:23;;;;;;;5.93;3.47;;;;;;;;;;5052337;28;20041;-71
2022/09/26 12:46:53;;;;;;;6.50;3.63;;;;;;;;;;5052696;28;20052;-71
2022/09/26 12:49:21;;;;;;;5.88;3.60;;;;;;;;;;5056417;28;20474;-71
2022/09/26 12:51:51;;;;;;;6.25;3.30;;;;;;;;;;5056244;28;20522;-71
2022/09/26 12:54:25;;;;;;;5.32;3.10;;;;;;;;;;5056325;28;20056;-71
2022/09/26 12:57:16;;;;;;;5.20;3.53;;;;;;;;;;5056121;28;20037;-71
2022/09/26 12:59:43;;;;;;;4.40;3.40;;;;;;;;;;5053229;28;20443;-71
2022/09/26 13:02:20;;;;;;;7.65;4.70;;;;;;;;;;5056060;28;20128;-71
2022/09/26 13:04:49;;;;;;;5.25;3.25;;;;;;;;;;5054727;28;20049;-71
2022/09/26 13:07:17;;;;;;;5.75;3.50;;;;;;;;;;5054720;28;20055;-71
2022/09/26 13:10:05;;;;;;;4.95;3.70;;;;;;;;;;5055690;28;20080;-72
2022/09/26 13:12:51;;;;;;;6.45;3.25;;;;;;;;;;5055705;28;20055;-71
2022/09/26 13:15:38;;;;;;;6.65;3.55;;;;;;;;;;5055703;28;20044;-71
2022/09/26 13:18:18;;;;;;;6.47;3.80;;;;;;;;;;5055652;28;20558;-71
2022/09/26 13:20:54;;;;;;;7.53;5.03;;;;;;;;;;5055544;28;20120;-71
2022/09/26 13:23:26;;;;;;;7.78;3.17;;;;;;;;;;5054317;28;20101;-71
2022/09/26 13:25:55;;;;;;;6.10;3.42;;;;;;;;;;5055686;28;20394;-72
2022/09/26 13:28:27;;;;;;;9.90;3.70;;;;;;;;;;5055663;28;20451;-71
2022/09/26 13:31:17;;;;;;;5.25;3.00;;;;;;;;;;5054259;28;20045;-72
2022/09/26 13:33:48;;;;;;;4.55;2.97;;;;;;;;;;5055394;28;20045;-72
2022/09/26 13:36:19;;;;;;;8.65;5.07;;;;;;;;;;5055428;28;20390;-72
2022/09/26 13:39:02;;;;;;;6.00;3.30;;;;;;;;;;5054511;28;20045;-74
2022/09/26 13:41:52;;;;;;;10.55;4.63;;;;;;;;;;5053889;28;20402;-72
2022/09/26 13:44:32;;;;;;;4.97;3.00;;;;;;;;;;5055029;28;20067;-71
2022/09/26 13:47:19;;;;;;;6.28;3.30;;;;;;;;;;5054918;28;20124;-71
2022/09/26 13:50:07;;;;;;;7.22;3.08;;;;;;;;;;5057783;28;20037;-71
2022/09/26 13:52:45;;;;;;;5.82;2.80;;;;;;;;;;5055194;28;20037;-71
2022/09/26 13:55:18;;;;;;;5.75;2.70;;;;;;;;;;5055011;28;20048;-72
2022/09/26 13:57:46;;;;;;;4.80;3.15;;;;;;;;;;5054378;28;20052;-70
2022/09/26 14:00:28;;;;;;;10.82;3.65;;;;;;;;;;5054070;28;20033;-71
2022/09/26 14:03:12;;;;;;;10.00;3.90;;;;;;;;;;5054681;28;20044;-71
2022/09/26 14:05:43;;;;;;;5.82;3.45;;;;;;;;;;5054627;28;20049;-71
2022/09/26 14:11:13;;;;;;;5.82;3.30;;;;;;;;;;5054338;28;20045;-70
2022/09/26 14:13:41;;;;;;;6.30;3.40;;;;;;;;;;5049063;28;20041;-71
2022/09/26 14:16:27;;;;;;;5.07;2.70;;;;;;;;;;5047334;28;20037;-70
2022/09/26 14:18:57;;;;;;;20.42;4.18;;;;;;;;;;5053247;28;20044;-71
2022/09/26 14:21:28;;;;;;;12.75;3.80;;;;;;;;;;5051310;28;20037;-71
2022/09/26 14:24:15;;;;;;;7.20;2.72;;;;;;;;;;5050074;28;20049;-71
2022/09/26 14:26:44;;;;;;;4.75;3.00;;;;;;;;;;5047093;28;20041;-70
2022/09/26 14:29:24;;;;;;;9.73;3.17;;;;;;;;;;5033889;28;20455;-71
2022/09/26 14:32:09;;;;;;;8.73;3.25;;;;;;;;;;5033827;28;20046;-71
2022/09/26 14:34:40;;;;;;;7.72;3.42;;;;;;;;;;5053540;28;20402;-74
2022/09/26 14:37:20;;;;;;;8.63;3.33;;;;;;;;;;5036606;28;20037;-72
2022/09/26 14:39:50;;;;;;;11.75;3.40;;;;;;;;;;5033754;28;20037;-72
2022/09/26 14:42:28;;;;;;;6.55;3.65;;;;;;;;;;5033563;28;20034;-71
2022/09/26 14:44:57;;;;;;;7.78;3.17;;;;;;;;;;5033342;28;20033;-72
2022/09/26 14:47:30;;;;;;;5.63;3.00;;;;;;;;;;5033257;28;20037;-72
2022/09/26 14:49:59;;;;;;;6.63;3.45;;;;;;;;;;5042048;28;20414;-71
2022/09/26 14:52:27;;;;;;;7.28;4.32;;;;;;;;;;5053157;28;20045;-71
2022/09/26 14:55:00;;;;;;;8.88;3.47;;;;;;;;;;5051893;28;20356;-71
2022/09/26 14:57:31;;;;;;;6.93;4.20;;;;;;;;;;5053210;28;20052;-72
2022/09/26 14:59:59;;;;;;;6.57;3.50;;;;;;;;;;5053203;28;20033;-73
2022/09/26 15:02:30;;;;;;;7.60;3.30;;;;;;;;;;5052881;28;20407;-72
2022/09/26 15:05:10;;;;;;;9.85;3.13;;;;;;;;;;5052878;28;20043;-71
2022/09/26 15:07:42;;;;;;;6.40;3.08;;;;;;;;;;5052605;28;20379;-71
2022/09/26 15:10:13;;;;;;;5.60;2.80;;;;;;;;;;5047347;28;20148;-72
2022/09/26 15:12:47;;;;;;;7.28;3.25;;;;;;;;;;5032602;28;20136;-71
2022/09/26 15:15:34;;;;;;;6.17;3.33;;;;;;;;;;5033181;28;20061;-73
2022/09/26 15:18:07;;;;;;;9.00;4.20;;;;;;;;;;5032936;28;20071;-73
2022/09/26 15:20:39;;;;;;;6.10;3.15;;;;;;;;;;5032869;28;20041;-72
2022/09/26 15:23:39;;;;;;;7.55;3.90;;;;;;;;;;5033430;28;20046;-72
2022/09/26 15:26:06;;;;;;;11.05;3.97;;;;;;;;;;5039053;28;20060;-72
2022/09/26 15:28:36;;;;;;;7.80;4.60;;;;;;;;;;5052898;28;20429;-72
2022/09/26 15:31:36;;;;;;;7.28;4.60;;;;;;;;;;5052803;28;20095;-71
2022/09/26 15:34:10;;;;;;;8.43;3.92;;;;;;;;;;5033917;28;20091;-71
2022/09/26 15:36:38;;;;;;;7.47;4.28;;;;;;;;;;5046005;28;20091;-71
2022/09/26 15:39:24;;;;;;;5.97;4.00;;;;;;;;;;5041615;28;20044;-71
2022/09/26 15:44:46;;;;;;;8.00;4.28;;;;;;;;;;5032413;28;20041;-72
2022/09/26 15:47:28;;;;;;;11.68;4.95;;;;;;;;;;5032319;28;20049;-71